sensor_id;sensor_type;location;lat;lon;timestamp;P1;durP1;ratioP1;P2;durP2;ratioP2
14732;SDS011;7457;50.960;6.830;2024-02-04T00:02:24;8.20;;;7.05;;
14732;SDS011;7457;50.960;6.830;2024-02-04T00:04:51;10.10;;;8.27;;
14732;SDS011;7457;50.960;6.830;2024-02-04T00:07:17;12.65;;;7.78;;
14732;SDS011;7457;50.960;6.830;2024-02-04T00:09:42;10.23;;;8.30;;
14732;SDS011;7457;50.960;6.830;2024-02-04T00:12:12;8.95;;;7.38;;
14732;SDS011;7457;50.960;6.830;2024-02-04T00:14:37;9.88;;;7.78;;
14732;SDS011;7457;50.960;6.830;2024-02-04T00:17:03;7.47;;;6.53;;
14732;SDS011;7457;50.960;6.830;2024-02-04T00:19:29;11.73;;;8.02;;
14732;SDS011;7457;50.960;6.830;2024-02-04T00:21:55;10.25;;;8.02;;
14732;SDS011;7457;50.960;6.830;2024-02-04T00:24:20;10.90;;;7.95;;
14732;SDS011;7457;50.960;6.830;2024-02-04T00:26:46;7.15;;;5.90;;
14732;SDS011;7457;50.960;6.830;2024-02-04T00:29:12;8.18;;;7.15;;
14732;SDS011;7457;50.960;6.830;2024-02-04T00:31:38;9.10;;;7.50;;
14732;SDS011;7457;50.960;6.830;2024-02-04T00:34:04;8.85;;;7.45;;
14732;SDS011;7457;50.960;6.830;2024-02-04T00:36:30;9.93;;;7.93;;
14732;SDS011;7457;50.960;6.830;2024-02-04T00:38:56;10.05;;;7.97;;
14732;SDS011;7457;50.960;6.830;2024-02-04T00:41:22;10.45;;;8.23;;
14732;SDS011;7457;50.960;6.830;2024-02-04T00:43:47;9.73;;;8.52;;
14732;SDS011;7457;50.960;6.830;2024-02-04T00:46:13;10.18;;;7.47;;
14732;SDS011;7457;50.960;6.830;2024-02-04T00:48:39;7.78;;;7.05;;
14732;SDS011;7457;50.960;6.830;2024-02-04T00:51:09;7.30;;;6.60;;
14732;SDS011;7457;50.960;6.830;2024-02-04T00:53:35;7.40;;;6.32;;
14732;SDS011;7457;50.960;6.830;2024-02-04T00:56:02;8.07;;;6.75;;
14732;SDS011;7457;50.960;6.830;2024-02-04T00:58:29;7.35;;;6.25;;
14732;SDS011;7457;50.960;6.830;2024-02-04T01:00:55;6.55;;;5.88;;
14732;SDS011;7457;50.960;6.830;2024-02-04T01:03:21;5.90;;;5.40;;
14732;SDS011;7457;50.960;6.830;2024-02-04T01:05:47;5.40;;;4.90;;
14732;SDS011;7457;50.960;6.830;2024-02-04T01:08:13;6.72;;;5.53;;
14732;SDS011;7457;50.960;6.830;2024-02-04T01:10:38;7.25;;;5.28;;
14732;SDS011;7457;50.960;6.830;2024-02-04T01:13:04;4.85;;;4.45;;
14732;SDS011;7457;50.960;6.830;2024-02-04T01:15:30;5.13;;;4.63;;
14732;SDS011;7457;50.960;6.830;2024-02-04T01:17:56;4.53;;;4.13;;
14732;SDS011;7457;50.960;6.830;2024-02-04T01:20:21;5.43;;;4.63;;
14732;SDS011;7457;50.960;6.830;2024-02-04T01:22:47;3.78;;;3.47;;
14732;SDS011;7457;50.960;6.830;2024-02-04T01:25:13;4.18;;;3.78;;
14732;SDS011;7457;50.960;6.830;2024-02-04T01:27:39;4.65;;;4.10;;
14732;SDS011;7457;50.960;6.830;2024-02-04T01:30:05;4.50;;;4.10;;
14732;SDS011;7457;50.960;6.830;2024-02-04T01:32:32;5.25;;;3.92;;
14732;SDS011;7457;50.960;6.830;2024-02-04T01:34:58;4.53;;;4.13;;
14732;SDS011;7457;50.960;6.830;2024-02-04T01:37:24;4.88;;;4.18;;
14732;SDS011;7457;50.960;6.830;2024-02-04T01:39:50;4.55;;;4.13;;
14732;SDS011;7457;50.960;6.830;2024-02-04T01:42:15;4.90;;;4.35;;
14732;SDS011;7457;50.960;6.830;2024-02-04T01:44:41;6.00;;;4.50;;
14732;SDS011;7457;50.960;6.830;2024-02-04T01:47:08;5.97;;;3.75;;
14732;SDS011;7457;50.960;6.830;2024-02-04T01:49:34;4.80;;;4.38;;
14732;SDS011;7457;50.960;6.830;2024-02-04T01:52:01;4.70;;;4.20;;
14732;SDS011;7457;50.960;6.830;2024-02-04T01:54:27;4.95;;;4.38;;
14732;SDS011;7457;50.960;6.830;2024-02-04T01:56:56;5.57;;;3.88;;
14732;SDS011;7457;50.960;6.830;2024-02-04T01:59:26;5.15;;;4.30;;
14732;SDS011;7457;50.960;6.830;2024-02-04T02:02:04;4.93;;;3.50;;
14732;SDS011;7457;50.960;6.830;2024-02-04T02:04:31;4.60;;;4.20;;
14732;SDS011;7457;50.960;6.830;2024-02-04T02:06:56;4.40;;;4.00;;
14732;SDS011;7457;50.960;6.830;2024-02-04T02:09:25;4.20;;;3.80;;
14732;SDS011;7457;50.960;6.830;2024-02-04T02:11:57;6.88;;;4.03;;
14732;SDS011;7457;50.960;6.830;2024-02-04T02:14:33;5.25;;;3.97;;
14732;SDS011;7457;50.960;6.830;2024-02-04T02:17:04;4.53;;;4.10;;
14732;SDS011;7457;50.960;6.830;2024-02-04T02:22:26;5.28;;;4.25;;
14732;SDS011;7457;50.960;6.830;2024-02-04T02:24:57;5.30;;;3.90;;
14732;SDS011;7457;50.960;6.830;2024-02-04T02:27:25;4.00;;;3.63;;
14732;SDS011;7457;50.960;6.830;2024-02-04T02:29:51;6.03;;;4.03;;
14732;SDS011;7457;50.960;6.830;2024-02-04T02:32:17;7.57;;;4.00;;
14732;SDS011;7457;50.960;6.830;2024-02-04T02:34:43;6.18;;;3.85;;
14732;SDS011;7457;50.960;6.830;2024-02-04T02:37:23;8.07;;;4.15;;
14732;SDS011;7457;50.960;6.830;2024-02-04T02:42:23;4.45;;;4.05;;
14732;SDS011;7457;50.960;6.830;2024-02-04T02:44:49;4.95;;;4.45;;
14732;SDS011;7457;50.960;6.830;2024-02-04T02:47:16;5.40;;;4.32;;
14732;SDS011;7457;50.960;6.830;2024-02-04T02:49:43;4.88;;;4.38;;
14732;SDS011;7457;50.960;6.830;2024-02-04T02:52:09;5.55;;;4.93;;
14732;SDS011;7457;50.960;6.830;2024-02-04T02:54:35;5.72;;;5.13;;
14732;SDS011;7457;50.960;6.830;2024-02-04T02:57:01;5.35;;;4.63;;
14732;SDS011;7457;50.960;6.830;2024-02-04T02:59:27;6.35;;;4.30;;
14732;SDS011;7457;50.960;6.830;2024-02-04T03:01:52;5.22;;;4.63;;
14732;SDS011;7457;50.960;6.830;2024-02-04T03:04:18;5.82;;;4.75;;
14732;SDS011;7457;50.960;6.830;2024-02-04T03:06:44;6.25;;;4.50;;
14732;SDS011;7457;50.960;6.830;2024-02-04T03:09:10;5.13;;;4.63;;
14732;SDS011;7457;50.960;6.830;2024-02-04T03:11:36;5.65;;;4.70;;
14732;SDS011;7457;50.960;6.830;2024-02-04T03:14:02;5.05;;;4.40;;
14732;SDS011;7457;50.960;6.830;2024-02-04T03:16:28;7.97;;;5.13;;
14732;SDS011;7457;50.960;6.830;2024-02-04T03:18:54;5.25;;;4.18;;
14732;SDS011;7457;50.960;6.830;2024-02-04T03:21:20;4.78;;;4.38;;
14732;SDS011;7457;50.960;6.830;2024-02-04T03:23:46;5.45;;;4.85;;
14732;SDS011;7457;50.960;6.830;2024-02-04T03:26:15;4.68;;;4.22;;
14732;SDS011;7457;50.960;6.830;2024-02-04T03:28:44;6.05;;;4.80;;
14732;SDS011;7457;50.960;6.830;2024-02-04T03:31:10;4.40;;;3.97;;
14732;SDS011;7457;50.960;6.830;2024-02-04T03:33:36;5.45;;;4.82;;
14732;SDS011;7457;50.960;6.830;2024-02-04T03:36:02;4.85;;;4.35;;
14732;SDS011;7457;50.960;6.830;2024-02-04T03:38:28;5.45;;;4.90;;
14732;SDS011;7457;50.960;6.830;2024-02-04T03:40:54;5.35;;;4.85;;
14732;SDS011;7457;50.960;6.830;2024-02-04T03:43:20;5.70;;;5.00;;
14732;SDS011;7457;50.960;6.830;2024-02-04T03:45:46;7.55;;;5.20;;
14732;SDS011;7457;50.960;6.830;2024-02-04T03:48:11;7.50;;;6.70;;
14732;SDS011;7457;50.960;6.830;2024-02-04T03:50:37;6.30;;;5.63;;
14732;SDS011;7457;50.960;6.830;2024-02-04T03:53:03;6.47;;;5.88;;
14732;SDS011;7457;50.960;6.830;2024-02-04T03:55:29;7.35;;;5.78;;
14732;SDS011;7457;50.960;6.830;2024-02-04T03:57:54;7.70;;;5.70;;
14732;SDS011;7457;50.960;6.830;2024-02-04T04:00:22;6.15;;;5.55;;
14732;SDS011;7457;50.960;6.830;2024-02-04T04:02:48;5.72;;;4.97;;
14732;SDS011;7457;50.960;6.830;2024-02-04T04:05:16;5.30;;;4.80;;
14732;SDS011;7457;50.960;6.830;2024-02-04T04:07:42;5.80;;;4.88;;
14732;SDS011;7457;50.960;6.830;2024-02-04T04:10:08;5.88;;;5.07;;
14732;SDS011;7457;50.960;6.830;2024-02-04T04:12:34;5.75;;;5.25;;
14732;SDS011;7457;50.960;6.830;2024-02-04T04:14:59;5.55;;;5.00;;
14732;SDS011;7457;50.960;6.830;2024-02-04T04:17:25;7.20;;;4.78;;
14732;SDS011;7457;50.960;6.830;2024-02-04T04:19:51;6.13;;;5.53;;
14732;SDS011;7457;50.960;6.830;2024-02-04T04:22:17;6.97;;;4.43;;
14732;SDS011;7457;50.960;6.830;2024-02-04T04:24:43;4.88;;;4.18;;
14732;SDS011;7457;50.960;6.830;2024-02-04T04:27:08;4.25;;;3.83;;
14732;SDS011;7457;50.960;6.830;2024-02-04T04:29:34;5.05;;;3.58;;
14732;SDS011;7457;50.960;6.830;2024-02-04T04:32:00;4.50;;;3.72;;
14732;SDS011;7457;50.960;6.830;2024-02-04T04:34:26;5.65;;;3.97;;
14732;SDS011;7457;50.960;6.830;2024-02-04T04:36:51;5.18;;;4.03;;
14732;SDS011;7457;50.960;6.830;2024-02-04T04:39:17;5.03;;;4.15;;
14732;SDS011;7457;50.960;6.830;2024-02-04T04:41:43;4.70;;;4.10;;
14732;SDS011;7457;50.960;6.830;2024-02-04T04:44:10;7.13;;;4.30;;
14732;SDS011;7457;50.960;6.830;2024-02-04T04:46:39;5.05;;;3.92;;
14732;SDS011;7457;50.960;6.830;2024-02-04T04:49:05;5.07;;;4.18;;
14732;SDS011;7457;50.960;6.830;2024-02-04T04:51:30;5.20;;;4.68;;
14732;SDS011;7457;50.960;6.830;2024-02-04T04:53:57;6.85;;;4.47;;
14732;SDS011;7457;50.960;6.830;2024-02-04T04:56:23;7.28;;;4.68;;
14732;SDS011;7457;50.960;6.830;2024-02-04T04:58:48;5.45;;;4.95;;
14732;SDS011;7457;50.960;6.830;2024-02-04T05:01:15;4.93;;;4.43;;
14732;SDS011;7457;50.960;6.830;2024-02-04T05:03:41;6.60;;;5.03;;
14732;SDS011;7457;50.960;6.830;2024-02-04T05:06:07;5.80;;;5.13;;
14732;SDS011;7457;50.960;6.830;2024-02-04T05:08:33;6.38;;;5.43;;
14732;SDS011;7457;50.960;6.830;2024-02-04T05:10:59;6.60;;;5.32;;
14732;SDS011;7457;50.960;6.830;2024-02-04T05:13:24;7.93;;;5.55;;
14732;SDS011;7457;50.960;6.830;2024-02-04T05:15:50;5.40;;;4.63;;
14732;SDS011;7457;50.960;6.830;2024-02-04T05:18:16;6.07;;;5.15;;
14732;SDS011;7457;50.960;6.830;2024-02-04T05:20:42;6.30;;;5.18;;
14732;SDS011;7457;50.960;6.830;2024-02-04T05:23:08;6.28;;;5.30;;
14732;SDS011;7457;50.960;6.830;2024-02-04T05:25:34;7.55;;;6.07;;
14732;SDS011;7457;50.960;6.830;2024-02-04T05:28:00;8.30;;;5.85;;
14732;SDS011;7457;50.960;6.830;2024-02-04T05:30:26;6.40;;;5.22;;
14732;SDS011;7457;50.960;6.830;2024-02-04T05:32:51;6.35;;;5.53;;
14732;SDS011;7457;50.960;6.830;2024-02-04T05:35:17;7.50;;;6.20;;
14732;SDS011;7457;50.960;6.830;2024-02-04T05:37:43;7.10;;;5.65;;
14732;SDS011;7457;50.960;6.830;2024-02-04T05:40:09;7.75;;;5.53;;
14732;SDS011;7457;50.960;6.830;2024-02-04T05:42:35;7.30;;;5.28;;
14732;SDS011;7457;50.960;6.830;2024-02-04T05:45:02;6.63;;;5.30;;
14732;SDS011;7457;50.960;6.830;2024-02-04T05:47:30;6.65;;;5.20;;
14732;SDS011;7457;50.960;6.830;2024-02-04T05:49:56;7.55;;;5.80;;
14732;SDS011;7457;50.960;6.830;2024-02-04T05:52:22;8.52;;;6.80;;
14732;SDS011;7457;50.960;6.830;2024-02-04T05:54:47;7.00;;;6.07;;
14732;SDS011;7457;50.960;6.830;2024-02-04T05:57:13;8.23;;;6.50;;
14732;SDS011;7457;50.960;6.830;2024-02-04T05:59:39;7.28;;;6.47;;
14732;SDS011;7457;50.960;6.830;2024-02-04T06:02:04;8.93;;;6.70;;
14732;SDS011;7457;50.960;6.830;2024-02-04T06:04:30;7.45;;;6.38;;
14732;SDS011;7457;50.960;6.830;2024-02-04T06:06:56;7.20;;;6.13;;
14732;SDS011;7457;50.960;6.830;2024-02-04T06:09:22;7.60;;;6.80;;
14732;SDS011;7457;50.960;6.830;2024-02-04T06:11:48;10.25;;;6.63;;
14732;SDS011;7457;50.960;6.830;2024-02-04T06:14:14;8.90;;;6.38;;
14732;SDS011;7457;50.960;6.830;2024-02-04T06:16:40;7.43;;;6.22;;
14732;SDS011;7457;50.960;6.830;2024-02-04T06:19:05;8.75;;;6.55;;
14732;SDS011;7457;50.960;6.830;2024-02-04T06:21:34;8.57;;;6.20;;
14732;SDS011;7457;50.960;6.830;2024-02-04T06:23:59;6.70;;;5.90;;
14732;SDS011;7457;50.960;6.830;2024-02-04T06:26:25;6.90;;;5.90;;
14732;SDS011;7457;50.960;6.830;2024-02-04T06:28:51;8.07;;;5.57;;
14732;SDS011;7457;50.960;6.830;2024-02-04T06:31:17;6.95;;;5.28;;
14732;SDS011;7457;50.960;6.830;2024-02-04T06:33:43;7.65;;;5.35;;
14732;SDS011;7457;50.960;6.830;2024-02-04T06:36:09;6.55;;;4.78;;
14732;SDS011;7457;50.960;6.830;2024-02-04T06:38:35;5.85;;;4.90;;
14732;SDS011;7457;50.960;6.830;2024-02-04T06:41:01;5.80;;;4.95;;
14732;SDS011;7457;50.960;6.830;2024-02-04T06:43:27;4.80;;;4.30;;
14732;SDS011;7457;50.960;6.830;2024-02-04T06:45:53;5.03;;;3.65;;
14732;SDS011;7457;50.960;6.830;2024-02-04T06:48:19;4.13;;;3.72;;
14732;SDS011;7457;50.960;6.830;2024-02-04T06:50:45;3.30;;;3.00;;
14732;SDS011;7457;50.960;6.830;2024-02-04T06:53:13;3.28;;;2.90;;
14732;SDS011;7457;50.960;6.830;2024-02-04T06:55:39;4.13;;;2.65;;
14732;SDS011;7457;50.960;6.830;2024-02-04T06:58:05;4.38;;;2.50;;
14732;SDS011;7457;50.960;6.830;2024-02-04T07:00:31;2.08;;;1.88;;
14732;SDS011;7457;50.960;6.830;2024-02-04T07:02:56;2.33;;;2.13;;
14732;SDS011;7457;50.960;6.830;2024-02-04T07:05:22;3.00;;;1.83;;
14732;SDS011;7457;50.960;6.830;2024-02-04T07:07:48;2.25;;;2.05;;
14732;SDS011;7457;50.960;6.830;2024-02-04T07:10:15;2.60;;;2.17;;
14732;SDS011;7457;50.960;6.830;2024-02-04T07:12:41;2.50;;;2.28;;
14732;SDS011;7457;50.960;6.830;2024-02-04T07:15:07;4.13;;;2.40;;
14732;SDS011;7457;50.960;6.830;2024-02-04T07:17:33;2.47;;;2.28;;
14732;SDS011;7457;50.960;6.830;2024-02-04T07:20:00;2.53;;;1.85;;
14732;SDS011;7457;50.960;6.830;2024-02-04T07:22:30;3.92;;;2.75;;
14732;SDS011;7457;50.960;6.830;2024-02-04T07:24:56;2.55;;;2.35;;
14732;SDS011;7457;50.960;6.830;2024-02-04T07:27:22;2.70;;;2.35;;
14732;SDS011;7457;50.960;6.830;2024-02-04T07:29:48;4.18;;;2.55;;
14732;SDS011;7457;50.960;6.830;2024-02-04T07:32:15;3.47;;;2.50;;
14732;SDS011;7457;50.960;6.830;2024-02-04T07:34:42;2.90;;;2.30;;
14732;SDS011;7457;50.960;6.830;2024-02-04T07:37:08;2.40;;;2.20;;
14732;SDS011;7457;50.960;6.830;2024-02-04T07:39:34;1.90;;;1.80;;
14732;SDS011;7457;50.960;6.830;2024-02-04T07:41:59;3.33;;;2.28;;
14732;SDS011;7457;50.960;6.830;2024-02-04T07:44:28;2.53;;;2.22;;
14732;SDS011;7457;50.960;6.830;2024-02-04T07:46:54;2.92;;;2.38;;
14732;SDS011;7457;50.960;6.830;2024-02-04T07:49:20;3.47;;;2.08;;
14732;SDS011;7457;50.960;6.830;2024-02-04T07:51:46;2.25;;;2.05;;
14732;SDS011;7457;50.960;6.830;2024-02-04T07:54:12;2.20;;;2.00;;
14732;SDS011;7457;50.960;6.830;2024-02-04T07:56:38;3.00;;;2.35;;
14732;SDS011;7457;50.960;6.830;2024-02-04T07:59:04;2.70;;;2.30;;
14732;SDS011;7457;50.960;6.830;2024-02-04T08:01:30;2.65;;;2.45;;
14732;SDS011;7457;50.960;6.830;2024-02-04T08:03:56;3.22;;;2.78;;
14732;SDS011;7457;50.960;6.830;2024-02-04T08:06:21;2.33;;;2.13;;
14732;SDS011;7457;50.960;6.830;2024-02-04T08:08:47;2.85;;;2.55;;
14732;SDS011;7457;50.960;6.830;2024-02-04T08:11:17;2.38;;;2.17;;
14732;SDS011;7457;50.960;6.830;2024-02-04T08:13:43;2.35;;;2.15;;
14732;SDS011;7457;50.960;6.830;2024-02-04T08:16:10;3.80;;;2.38;;
14732;SDS011;7457;50.960;6.830;2024-02-04T08:18:36;2.50;;;2.30;;
14732;SDS011;7457;50.960;6.830;2024-02-04T08:21:02;3.15;;;2.75;;
14732;SDS011;7457;50.960;6.830;2024-02-04T08:23:28;4.30;;;2.53;;
14732;SDS011;7457;50.960;6.830;2024-02-04T08:25:54;3.75;;;2.35;;
14732;SDS011;7457;50.960;6.830;2024-02-04T08:28:22;2.67;;;2.33;;
14732;SDS011;7457;50.960;6.830;2024-02-04T08:30:48;2.40;;;2.20;;
14732;SDS011;7457;50.960;6.830;2024-02-04T08:33:14;3.50;;;2.40;;
14732;SDS011;7457;50.960;6.830;2024-02-04T08:35:40;4.45;;;2.80;;
14732;SDS011;7457;50.960;6.830;2024-02-04T08:38:06;4.97;;;3.13;;
14732;SDS011;7457;50.960;6.830;2024-02-04T08:40:32;3.10;;;2.80;;
14732;SDS011;7457;50.960;6.830;2024-02-04T08:42:58;3.97;;;2.60;;
14732;SDS011;7457;50.960;6.830;2024-02-04T08:45:23;2.90;;;2.58;;
14732;SDS011;7457;50.960;6.830;2024-02-04T08:47:49;2.47;;;2.28;;
14732;SDS011;7457;50.960;6.830;2024-02-04T08:50:15;2.38;;;2.13;;
14732;SDS011;7457;50.960;6.830;2024-02-04T08:52:41;2.60;;;2.40;;
14732;SDS011;7457;50.960;6.830;2024-02-04T08:55:07;2.42;;;1.85;;
14732;SDS011;7457;50.960;6.830;2024-02-04T08:57:34;2.75;;;2.42;;
14732;SDS011;7457;50.960;6.830;2024-02-04T08:59:59;2.20;;;2.03;;
14732;SDS011;7457;50.960;6.830;2024-02-04T09:02:25;3.75;;;1.92;;
14732;SDS011;7457;50.960;6.830;2024-02-04T09:04:51;2.42;;;1.98;;
14732;SDS011;7457;50.960;6.830;2024-02-04T09:07:18;1.60;;;1.50;;
14732;SDS011;7457;50.960;6.830;2024-02-04T09:09:43;1.50;;;1.38;;
14732;SDS011;7457;50.960;6.830;2024-02-04T09:12:09;1.65;;;1.55;;
14732;SDS011;7457;50.960;6.830;2024-02-04T09:14:35;1.52;;;1.38;;
14732;SDS011;7457;50.960;6.830;2024-02-04T09:17:04;2.17;;;1.50;;
14732;SDS011;7457;50.960;6.830;2024-02-04T09:19:31;2.53;;;1.65;;
14732;SDS011;7457;50.960;6.830;2024-02-04T09:21:57;1.70;;;1.40;;
14732;SDS011;7457;50.960;6.830;2024-02-04T09:24:26;1.15;;;1.05;;
14732;SDS011;7457;50.960;6.830;2024-02-04T09:26:52;2.35;;;1.42;;
14732;SDS011;7457;50.960;6.830;2024-02-04T09:29:18;1.33;;;1.20;;
14732;SDS011;7457;50.960;6.830;2024-02-04T09:31:45;1.33;;;1.20;;
14732;SDS011;7457;50.960;6.830;2024-02-04T09:34:11;1.42;;;1.23;;
14732;SDS011;7457;50.960;6.830;2024-02-04T09:36:36;1.67;;;1.58;;
14732;SDS011;7457;50.960;6.830;2024-02-04T09:39:02;2.15;;;1.20;;
14732;SDS011;7457;50.960;6.830;2024-02-04T09:41:28;1.33;;;1.23;;
14732;SDS011;7457;50.960;6.830;2024-02-04T09:43:54;1.65;;;1.30;;
14732;SDS011;7457;50.960;6.830;2024-02-04T09:46:21;1.40;;;1.30;;
14732;SDS011;7457;50.960;6.830;2024-02-04T09:48:47;1.88;;;1.77;;
14732;SDS011;7457;50.960;6.830;2024-02-04T09:51:16;2.05;;;1.70;;
14732;SDS011;7457;50.960;6.830;2024-02-04T09:53:44;2.70;;;1.80;;
14732;SDS011;7457;50.960;6.830;2024-02-04T09:56:11;2.10;;;1.90;;
14732;SDS011;7457;50.960;6.830;2024-02-04T09:58:38;3.53;;;2.08;;
14732;SDS011;7457;50.960;6.830;2024-02-04T10:01:04;2.10;;;2.00;;
14732;SDS011;7457;50.960;6.830;2024-02-04T10:03:33;2.33;;;1.70;;
14732;SDS011;7457;50.960;6.830;2024-02-04T10:05:58;3.60;;;1.80;;
14732;SDS011;7457;50.960;6.830;2024-02-04T10:08:24;2.38;;;2.10;;
14732;SDS011;7457;50.960;6.830;2024-02-04T10:10:53;2.63;;;1.80;;
14732;SDS011;7457;50.960;6.830;2024-02-04T10:13:19;2.40;;;2.20;;
14732;SDS011;7457;50.960;6.830;2024-02-04T10:15:47;2.90;;;2.00;;
14732;SDS011;7457;50.960;6.830;2024-02-04T10:18:13;5.22;;;2.10;;
14732;SDS011;7457;50.960;6.830;2024-02-04T10:20:39;2.40;;;2.20;;
14732;SDS011;7457;50.960;6.830;2024-02-04T10:23:05;3.55;;;2.65;;
14732;SDS011;7457;50.960;6.830;2024-02-04T10:25:31;2.58;;;2.38;;
14732;SDS011;7457;50.960;6.830;2024-02-04T10:27:57;4.15;;;2.53;;
14732;SDS011;7457;50.960;6.830;2024-02-04T10:30:23;2.78;;;2.30;;
14732;SDS011;7457;50.960;6.830;2024-02-04T10:32:53;2.83;;;2.50;;
14732;SDS011;7457;50.960;6.830;2024-02-04T10:35:22;2.58;;;2.38;;
14732;SDS011;7457;50.960;6.830;2024-02-04T10:37:49;2.70;;;2.50;;
14732;SDS011;7457;50.960;6.830;2024-02-04T10:40:16;3.70;;;2.63;;
14732;SDS011;7457;50.960;6.830;2024-02-04T10:42:42;3.38;;;3.00;;
14732;SDS011;7457;50.960;6.830;2024-02-04T10:45:09;5.28;;;2.50;;
14732;SDS011;7457;50.960;6.830;2024-02-04T10:47:39;2.78;;;2.40;;
14732;SDS011;7457;50.960;6.830;2024-02-04T10:50:05;4.07;;;2.83;;
14732;SDS011;7457;50.960;6.830;2024-02-04T10:52:36;2.58;;;2.30;;
14732;SDS011;7457;50.960;6.830;2024-02-04T10:55:07;2.63;;;2.20;;
14732;SDS011;7457;50.960;6.830;2024-02-04T10:57:35;2.50;;;2.30;;
14732;SDS011;7457;50.960;6.830;2024-02-04T11:00:04;2.13;;;1.92;;
14732;SDS011;7457;50.960;6.830;2024-02-04T11:02:34;1.77;;;1.67;;
14732;SDS011;7457;50.960;6.830;2024-02-04T11:05:02;1.52;;;1.42;;
14732;SDS011;7457;50.960;6.830;2024-02-04T11:07:31;1.30;;;1.17;;
14732;SDS011;7457;50.960;6.830;2024-02-04T11:09:59;1.52;;;1.42;;
14732;SDS011;7457;50.960;6.830;2024-02-04T11:12:26;1.33;;;1.23;;
14732;SDS011;7457;50.960;6.830;2024-02-04T11:15:01;1.75;;;1.20;;
14732;SDS011;7457;50.960;6.830;2024-02-04T11:28:18;1.17;;;1.13;;
14732;SDS011;7457;50.960;6.830;2024-02-04T11:30:46;1.33;;;1.05;;
14732;SDS011;7457;50.960;6.830;2024-02-04T11:33:13;1.00;;;1.00;;
14732;SDS011;7457;50.960;6.830;2024-02-04T11:35:58;3.15;;;1.50;;
14732;SDS011;7457;50.960;6.830;2024-02-04T11:38:35;1.52;;;1.42;;
14732;SDS011;7457;50.960;6.830;2024-02-04T11:41:02;2.10;;;1.60;;
14732;SDS011;7457;50.960;6.830;2024-02-04T11:43:28;1.45;;;1.35;;
14732;SDS011;7457;50.960;6.830;2024-02-04T11:45:57;1.85;;;1.73;;
14732;SDS011;7457;50.960;6.830;2024-02-04T11:48:28;1.98;;;1.88;;
14732;SDS011;7457;50.960;6.830;2024-02-04T11:50:57;2.33;;;1.98;;
14732;SDS011;7457;50.960;6.830;2024-02-04T11:53:25;1.65;;;1.55;;
14732;SDS011;7457;50.960;6.830;2024-02-04T11:55:55;2.72;;;2.10;;
14732;SDS011;7457;50.960;6.830;2024-02-04T11:58:21;2.13;;;1.80;;
14732;SDS011;7457;50.960;6.830;2024-02-04T12:00:48;2.40;;;1.90;;
14732;SDS011;7457;50.960;6.830;2024-02-04T12:03:27;2.38;;;2.17;;
14732;SDS011;7457;50.960;6.830;2024-02-04T12:05:58;3.03;;;1.92;;
14732;SDS011;7457;50.960;6.830;2024-02-04T12:08:24;3.38;;;2.30;;
14732;SDS011;7457;50.960;6.830;2024-02-04T12:10:52;2.60;;;2.38;;
14732;SDS011;7457;50.960;6.830;2024-02-04T12:13:19;3.92;;;2.28;;
14732;SDS011;7457;50.960;6.830;2024-02-04T12:15:47;3.10;;;2.13;;
14732;SDS011;7457;50.960;6.830;2024-02-04T12:18:14;2.17;;;1.80;;
14732;SDS011;7457;50.960;6.830;2024-02-04T12:20:41;1.95;;;1.80;;
14732;SDS011;7457;50.960;6.830;2024-02-04T12:23:07;1.90;;;1.80;;
14732;SDS011;7457;50.960;6.830;2024-02-04T12:25:33;3.53;;;1.90;;
14732;SDS011;7457;50.960;6.830;2024-02-04T12:28:00;1.90;;;1.80;;
14732;SDS011;7457;50.960;6.830;2024-02-04T12:30:28;2.17;;;1.90;;
14732;SDS011;7457;50.960;6.830;2024-02-04T12:35:24;1.80;;;1.70;;
14732;SDS011;7457;50.960;6.830;2024-02-04T12:37:54;2.70;;;1.58;;
14732;SDS011;7457;50.960;6.830;2024-02-04T12:40:25;1.83;;;1.70;;
14732;SDS011;7457;50.960;6.830;2024-02-04T12:42:53;1.95;;;1.85;;
14732;SDS011;7457;50.960;6.830;2024-02-04T12:45:23;1.80;;;1.70;;
14732;SDS011;7457;50.960;6.830;2024-02-04T12:47:50;1.65;;;1.55;;
14732;SDS011;7457;50.960;6.830;2024-02-04T12:50:17;2.38;;;1.80;;
14732;SDS011;7457;50.960;6.830;2024-02-04T12:52:49;1.80;;;1.70;;
14732;SDS011;7457;50.960;6.830;2024-02-04T12:55:27;1.70;;;1.60;;
14732;SDS011;7457;50.960;6.830;2024-02-04T13:00:29;2.30;;;2.00;;
14732;SDS011;7457;50.960;6.830;2024-02-04T13:02:58;4.90;;;1.80;;
14732;SDS011;7457;50.960;6.830;2024-02-04T13:05:24;4.38;;;2.40;;
14732;SDS011;7457;50.960;6.830;2024-02-04T13:07:51;2.40;;;2.20;;
14732;SDS011;7457;50.960;6.830;2024-02-04T13:10:30;2.67;;;2.47;;
14732;SDS011;7457;50.960;6.830;2024-02-04T13:15:26;2.50;;;2.20;;
14732;SDS011;7457;50.960;6.830;2024-02-04T13:17:55;2.58;;;2.38;;
14732;SDS011;7457;50.960;6.830;2024-02-04T13:20:22;2.80;;;2.60;;
14732;SDS011;7457;50.960;6.830;2024-02-04T13:22:48;2.72;;;2.50;;
14732;SDS011;7457;50.960;6.830;2024-02-04T13:25:14;3.17;;;2.88;;
14732;SDS011;7457;50.960;6.830;2024-02-04T13:27:40;2.70;;;2.50;;
14732;SDS011;7457;50.960;6.830;2024-02-04T13:30:06;2.78;;;2.58;;
14732;SDS011;7457;50.960;6.830;2024-02-04T13:32:38;2.78;;;2.58;;
14732;SDS011;7457;50.960;6.830;2024-02-04T13:35:05;3.08;;;2.65;;
14732;SDS011;7457;50.960;6.830;2024-02-04T13:37:33;3.83;;;2.40;;
14732;SDS011;7457;50.960;6.830;2024-02-04T13:40:05;4.70;;;2.70;;
14732;SDS011;7457;50.960;6.830;2024-02-04T13:42:33;2.53;;;2.33;;
14732;SDS011;7457;50.960;6.830;2024-02-04T13:45:00;3.72;;;2.45;;
14732;SDS011;7457;50.960;6.830;2024-02-04T13:47:27;2.38;;;2.17;;
14732;SDS011;7457;50.960;6.830;2024-02-04T13:49:54;2.42;;;2.22;;
14732;SDS011;7457;50.960;6.830;2024-02-04T13:52:19;1.98;;;1.88;;
14732;SDS011;7457;50.960;6.830;2024-02-04T13:54:46;1.80;;;1.70;;
14732;SDS011;7457;50.960;6.830;2024-02-04T13:57:11;2.13;;;1.92;;
14732;SDS011;7457;50.960;6.830;2024-02-04T13:59:37;2.88;;;1.83;;
14732;SDS011;7457;50.960;6.830;2024-02-04T14:02:03;2.25;;;1.70;;
14732;SDS011;7457;50.960;6.830;2024-02-04T14:04:30;2.13;;;1.40;;
14732;SDS011;7457;50.960;6.830;2024-02-04T14:06:56;1.75;;;1.65;;
14732;SDS011;7457;50.960;6.830;2024-02-04T14:09:22;1.98;;;1.67;;
14732;SDS011;7457;50.960;6.830;2024-02-04T14:11:48;1.70;;;1.60;;
14732;SDS011;7457;50.960;6.830;2024-02-04T14:14:14;1.88;;;1.70;;
14732;SDS011;7457;50.960;6.830;2024-02-04T14:16:40;2.40;;;1.80;;
14732;SDS011;7457;50.960;6.830;2024-02-04T14:19:06;1.90;;;1.65;;
14732;SDS011;7457;50.960;6.830;2024-02-04T14:21:32;3.17;;;1.77;;
14732;SDS011;7457;50.960;6.830;2024-02-04T14:23:57;1.98;;;1.60;;
14732;SDS011;7457;50.960;6.830;2024-02-04T14:26:23;2.20;;;2.00;;
14732;SDS011;7457;50.960;6.830;2024-02-04T14:28:49;2.33;;;1.45;;
14732;SDS011;7457;50.960;6.830;2024-02-04T14:31:15;2.28;;;1.83;;
14732;SDS011;7457;50.960;6.830;2024-02-04T14:33:42;1.85;;;1.70;;
14732;SDS011;7457;50.960;6.830;2024-02-04T14:36:09;2.00;;;1.90;;
14732;SDS011;7457;50.960;6.830;2024-02-04T14:38:35;1.98;;;1.80;;
14732;SDS011;7457;50.960;6.830;2024-02-04T14:41:03;1.95;;;1.80;;
14732;SDS011;7457;50.960;6.830;2024-02-04T14:43:30;1.80;;;1.70;;
14732;SDS011;7457;50.960;6.830;2024-02-04T14:45:55;2.75;;;1.90;;
14732;SDS011;7457;50.960;6.830;2024-02-04T14:48:21;2.50;;;2.17;;
14732;SDS011;7457;50.960;6.830;2024-02-04T14:50:47;3.70;;;1.90;;
14732;SDS011;7457;50.960;6.830;2024-02-04T14:53:13;2.53;;;2.33;;
14732;SDS011;7457;50.960;6.830;2024-02-04T14:55:39;2.00;;;1.90;;
14732;SDS011;7457;50.960;6.830;2024-02-04T14:58:05;3.17;;;2.28;;
14732;SDS011;7457;50.960;6.830;2024-02-04T15:00:31;2.65;;;2.20;;
14732;SDS011;7457;50.960;6.830;2024-02-04T15:02:57;2.38;;;2.17;;
14732;SDS011;7457;50.960;6.830;2024-02-04T15:05:25;2.40;;;2.20;;
14732;SDS011;7457;50.960;6.830;2024-02-04T15:07:51;2.70;;;2.50;;
14732;SDS011;7457;50.960;6.830;2024-02-04T15:10:20;2.88;;;2.50;;
14732;SDS011;7457;50.960;6.830;2024-02-04T15:12:45;2.53;;;2.13;;
14732;SDS011;7457;50.960;6.830;2024-02-04T15:15:12;3.10;;;2.75;;
14732;SDS011;7457;50.960;6.830;2024-02-04T15:17:38;2.90;;;2.70;;
14732;SDS011;7457;50.960;6.830;2024-02-04T15:20:04;2.90;;;2.70;;
14732;SDS011;7457;50.960;6.830;2024-02-04T15:22:31;3.30;;;2.63;;